Terminal Aerodrome Forecast
Issued by NWS

Home | Current Version | Previous Version | Text Only | Print | Product List | Glossary On
Versions: 1 2 3 4 5 6 7 8 9 10 11 12 13 14 15 16 17 18 19 20 21 22 23 24 25
000
FTPQ31 PGUM 301741
TAFGUM
TAF

TAF
PGSN 301741Z 3018/3118 08010KT P6SM FEW016
     FM310000 08014KT P6SM VCSH SCT018
     FM310900 08010KT P6SM VCSH SCT018 SCT050=

USA.gov is the U.S. government's official web portal to all federal, state and local government web resources and services.